Terminal Aerodrome Forecast
Issued by NWS

Home | Current Version | Previous Version | Text Only | Print | Product List | Glossary On
Versions: 1 2 3 4 5 6 7 8 9 10 11 12 13 14 15 16 17 18 19 20 21 22
634
FTUS44 KLZK 012336
TAFLIT
TAF
KLIT 012336Z 0200/0224 33007KT P6SM FEW050 SCT100
     FM020600 02004KT P6SM VCSH BKN050 OVC100
     FM021200 36006KT P6SM VCSH SCT025 OVC050 PROB30 0212/0218 5SM
      -RA BR OVC025
     FM021800 34007KT P6SM BKN050=

USA.gov is the U.S. government's official web portal to all federal, state and local government web resources and services.